McGuffey, Ohio
Current Conditions -  °F | °C
As of 4:53 AM on Thursday 18 Dec 2014 (Local Time) from KAOH Reporting Station
Overcast Overcast  
Wind Chill: 21°   Ceiling: 1800
Heat Index: 30°   Visibility: 10mi
Dew Point: 21°   Wind: 10mph
Humidity: 69%   Direction: 280°W
Pressure: 30.23"   Gusts: NA
Location:  40.69°N, 83.79°W
Report Text: KAOH 180953Z AUTO 28009KT 10SM OVC018 M01/M06 A3023 RMK AO2 SLP248 T10111061
Loading
Personal Weather Stations






























Interactive Weather Map New forecast layout! Learn more

10-Day Weather Forecast

Advertisements
Track Severe Weather on mobile